Time;durP1;ratioP1;P1;durP2;ratioP2;P2;SDS_P1;SDS_P2;PMS_P1;PMS_P2;Temp;Humidity;BMP_temperature;BMP_pressure;BME280_temperature;BME280_humidity;BME280_pressure;Samples;Min_cycle;Max_cycle;Signal;HPM_P1;HPM_P2
2023/08/31 00:02:13;;;;;;;0.03;0.03;;;14.40;99.90;;;;;;5011672;28;20146;-77
2023/08/31 00:04:39;;;;;;;0.00;0.00;;;14.40;99.90;;;;;;5011568;28;20119;-77
2023/08/31 00:07:05;;;;;;;4.57;0.98;;;14.40;99.90;;;;;;5011352;28;20475;-77
2023/08/31 00:09:31;;;;;;;0.00;0.00;;;14.20;99.90;;;;;;5011560;28;20060;-77
2023/08/31 00:11:57;;;;;;;0.10;0.10;;;14.10;99.90;;;;;;5009981;28;20073;-77
2023/08/31 00:14:23;;;;;;;0.10;0.10;;;13.80;99.90;;;;;;5009325;28;20029;-77
2023/08/31 00:16:50;;;;;;;0.00;0.00;;;13.60;99.90;;;;;;5011453;28;20030;-77
2023/08/31 00:19:16;;;;;;;0.30;0.30;;;13.50;99.90;;;;;;5011052;28;20022;-77
2023/08/31 00:21:42;;;;;;;1.08;0.95;;;13.80;99.90;;;;;;5011111;28;20030;-77
2023/08/31 00:24:10;;;;;;;0.40;0.40;;;13.60;99.90;;;;;;5011122;28;20030;-77
2023/08/31 00:26:42;;;;;;;0.00;0.00;;;13.40;99.90;;;;;;5011325;28;20502;-77
2023/08/31 00:29:10;;;;;;;0.03;0.03;;;13.40;99.90;;;;;;4997702;28;20033;-76
2023/08/31 00:31:37;;;;;;;0.00;0.00;;;13.10;99.90;;;;;;5009667;28;20746;-77
2023/08/31 00:34:06;;;;;;;0.28;0.28;;;13.20;99.90;;;;;;5006611;28;20038;-77
2023/08/31 00:36:33;;;;;;;0.38;0.38;;;13.30;99.90;;;;;;4992875;28;20382;-76
2023/08/31 00:39:10;;;;;;;0.30;0.30;;;13.40;99.90;;;;;;4994324;28;20064;-77
2023/08/31 00:41:39;;;;;;;0.05;0.05;;;13.30;99.90;;;;;;5009583;28;20061;-77
2023/08/31 00:44:05;;;;;;;0.73;0.60;;;13.40;99.90;;;;;;5006138;28;20095;-76
2023/08/31 00:46:32;;;;;;;0.45;0.45;;;13.20;99.90;;;;;;5007146;28;20045;-77
2023/08/31 00:48:58;;;;;;;0.30;0.30;;;13.20;99.90;;;;;;5007143;28;20022;-77
2023/08/31 00:51:25;;;;;;;0.20;0.20;;;13.20;99.90;;;;;;5004253;28;20033;-77
2023/08/31 00:53:54;;;;;;;0.52;0.43;;;13.30;99.90;;;;;;4999728;28;20046;-77
2023/08/31 00:56:21;;;;;;;0.13;0.13;;;13.30;99.90;;;;;;5085057;28;20030;-77
2023/08/31 00:58:47;;;;;;;0.10;0.10;;;13.40;99.90;;;;;;4994366;28;20026;-77
2023/08/31 01:01:28;;;;;;;0.10;0.10;;;13.50;99.90;;;;;;5010373;28;20113;-76
2023/08/31 01:04:16;;;;;;;0.10;0.10;;;13.50;99.90;;;;;;5007276;28;20489;-76
2023/08/31 01:07:02;;;;;;;2.03;1.67;;;13.50;99.90;;;;;;4998047;28;20164;-77
2023/08/31 01:09:38;;;;;;;0.10;0.10;;;13.30;99.90;;;;;;5006899;28;20030;-77
2023/08/31 01:12:15;;;;;;;0.25;0.25;;;13.50;99.90;;;;;;5009305;28;20041;-77
2023/08/31 01:15:07;;;;;;;0.10;0.10;;;13.50;99.90;;;;;;5002480;28;20030;-77
2023/08/31 01:17:42;;;;;;;0.38;0.38;;;13.50;99.90;;;;;;4996844;28;20046;-76
2023/08/31 01:20:11;;;;;;;0.70;0.43;;;13.40;99.90;;;;;;5002178;28;20099;-77
2023/08/31 01:23:00;;;;;;;0.70;0.70;;;13.30;99.90;;;;;;4994952;28;20041;-76
2023/08/31 01:25:26;;;;;;;9.43;1.10;;;13.30;99.90;;;;;;4993155;28;20023;-76
2023/08/31 01:27:53;;;;;;;0.05;0.05;;;13.20;99.90;;;;;;4992238;28;20466;-76
2023/08/31 01:30:19;;;;;;;1.45;1.23;;;13.20;99.90;;;;;;4991549;28;20030;-77
2023/08/31 01:32:45;;;;;;;0.10;0.10;;;13.30;99.90;;;;;;5000855;28;20041;-77
2023/08/31 01:35:14;;;;;;;0.43;0.20;;;13.40;99.90;;;;;;5007896;28;20113;-76
2023/08/31 01:38:01;;;;;;;0.88;0.65;;;13.50;99.90;;;;;;5007073;28;20029;-77
2023/08/31 01:40:33;;;;;;;4.85;2.85;;;13.50;99.90;;;;;;5003565;28;20486;-77
2023/08/31 01:43:04;;;;;;;1.42;0.30;;;13.50;99.90;;;;;;5005203;28;20083;-77
2023/08/31 01:45:33;;;;;;;0.77;0.60;;;13.50;99.90;;;;;;5000575;28;20375;-77
2023/08/31 01:47:59;;;;;;;2.35;0.50;;;13.60;99.90;;;;;;4997023;28;20485;-77
2023/08/31 01:50:25;;;;;;;3.30;1.65;;;13.60;99.90;;;;;;4996675;28;20027;-77
2023/08/31 01:52:53;;;;;;;0.50;0.50;;;13.90;99.90;;;;;;4994167;28;20038;-77
2023/08/31 01:55:19;;;;;;;0.57;0.28;;;14.00;99.90;;;;;;5007469;28;20080;-76
2023/08/31 01:57:45;;;;;;;0.30;0.30;;;14.30;99.90;;;;;;4995162;28;20491;-77
2023/08/31 02:00:18;;;;;;;0.22;0.22;;;14.40;99.90;;;;;;5004561;28;20386;-77
2023/08/31 02:02:46;;;;;;;0.65;0.65;;;14.50;99.90;;;;;;5007209;28;20501;-77
2023/08/31 02:05:13;;;;;;;0.10;0.10;;;14.20;99.90;;;;;;5005780;28;20100;-76
2023/08/31 02:07:40;;;;;;;1.08;0.85;;;14.00;99.90;;;;;;5004232;28;20026;-76
2023/08/31 02:10:06;;;;;;;0.10;0.10;;;14.00;99.90;;;;;;5003788;28;20034;-77
2023/08/31 02:12:36;;;;;;;0.25;0.25;;;14.00;99.90;;;;;;4999765;28;20539;-77
2023/08/31 02:15:06;;;;;;;0.05;0.05;;;14.10;99.90;;;;;;5005724;28;20118;-77
2023/08/31 02:17:33;;;;;;;0.70;0.55;;;13.80;99.90;;;;;;4979175;28;20058;-77
2023/08/31 02:20:00;;;;;;;1.83;1.08;;;13.80;99.90;;;;;;5008007;28;20416;-77
2023/08/31 02:22:26;;;;;;;0.22;0.22;;;13.90;99.90;;;;;;5007968;28;20026;-77
2023/08/31 02:24:52;;;;;;;0.17;0.17;;;13.80;99.90;;;;;;4992680;28;20064;-76
2023/08/31 02:27:18;;;;;;;1.30;1.17;;;13.80;99.90;;;;;;4992818;28;20057;-77
2023/08/31 02:29:43;;;;;;;1.05;1.02;;;13.90;99.90;;;;;;4988930;28;20037;-77
2023/08/31 02:32:09;;;;;;;0.80;0.55;;;13.90;99.90;;;;;;4990288;28;20103;-77
2023/08/31 02:34:35;;;;;;;0.10;0.10;;;13.90;99.90;;;;;;5004459;28;20083;-76
2023/08/31 02:37:01;;;;;;;2.15;1.58;;;14.00;99.90;;;;;;4989956;28;20031;-77
2023/08/31 02:39:27;;;;;;;0.13;0.13;;;13.90;99.90;;;;;;5006770;28;20109;-77
2023/08/31 02:41:53;;;;;;;3.08;1.95;;;13.80;99.90;;;;;;4995918;28;20117;-76
2023/08/31 02:44:20;;;;;;;2.20;1.38;;;13.70;99.90;;;;;;4991118;28;20030;-76
2023/08/31 02:46:46;;;;;;;2.80;1.08;;;13.60;99.90;;;;;;4989356;28;20026;-77
2023/08/31 02:49:12;;;;;;;1.42;1.17;;;13.70;99.90;;;;;;4991348;28;20516;-76
2023/08/31 02:51:37;;;;;;;3.67;2.22;;;13.70;99.90;;;;;;4989641;28;20139;-77
2023/08/31 02:54:03;;;;;;;0.10;0.10;;;13.70;99.90;;;;;;5004396;28;20026;-76
2023/08/31 02:56:29;;;;;;;0.25;0.25;;;13.80;99.90;;;;;;4987856;28;20018;-76
2023/08/31 02:58:55;;;;;;;0.22;0.22;;;13.90;99.90;;;;;;4993251;28;20027;-76
2023/08/31 03:01:24;;;;;;;1.08;1.05;;;13.90;99.90;;;;;;5003182;28;20026;-77
2023/08/31 03:03:50;;;;;;;0.17;0.17;;;14.00;99.90;;;;;;4989866;28;20237;-76
2023/08/31 03:06:17;;;;;;;0.40;0.40;;;13.90;99.90;;;;;;5003548;28;20050;-76
2023/08/31 03:08:43;;;;;;;0.20;0.20;;;13.80;99.90;;;;;;4988079;28;20068;-76
2023/08/31 03:11:09;;;;;;;1.80;1.70;;;13.80;99.90;;;;;;5005788;28;20042;-77
2023/08/31 03:13:35;;;;;;;0.35;0.35;;;13.80;99.90;;;;;;5000547;28;20079;-76
2023/08/31 03:16:02;;;;;;;0.88;0.65;;;13.80;99.90;;;;;;5012411;28;20382;-76
2023/08/31 03:18:29;;;;;;;0.10;0.10;;;13.80;99.90;;;;;;5010879;28;20489;-77
2023/08/31 03:20:56;;;;;;;0.75;0.75;;;14.00;99.90;;;;;;4987599;28;20113;-76
2023/08/31 03:23:24;;;;;;;0.40;0.40;;;13.80;99.90;;;;;;5010791;28;20117;-76
2023/08/31 03:25:50;;;;;;;0.10;0.10;;;14.00;99.90;;;;;;5011223;28;20377;-77
2023/08/31 03:28:16;;;;;;;0.10;0.10;;;14.00;99.90;;;;;;4993111;28;20086;-76
2023/08/31 03:30:44;;;;;;;0.70;0.70;;;13.90;99.90;;;;;;5012389;28;20453;-76
2023/08/31 03:33:12;;;;;;;0.60;0.60;;;14.00;99.90;;;;;;5010553;28;20106;-77
2023/08/31 03:35:38;;;;;;;0.25;0.25;;;13.90;99.90;;;;;;5010876;28;20049;-77
2023/08/31 03:38:04;;;;;;;0.57;0.20;;;13.80;99.90;;;;;;5010678;28;20026;-76
2023/08/31 03:40:30;;;;;;;1.67;1.35;;;13.70;99.90;;;;;;5000906;28;20026;-76
2023/08/31 03:42:56;;;;;;;0.20;0.20;;;13.50;99.90;;;;;;5010840;28;20024;-76
2023/08/31 03:45:22;;;;;;;1.00;1.00;;;13.60;99.90;;;;;;5012011;28;20030;-76
2023/08/31 03:47:48;;;;;;;0.63;0.63;;;13.40;99.90;;;;;;5010645;28;20377;-76
2023/08/31 03:50:13;;;;;;;0.20;0.20;;;13.40;99.90;;;;;;5012047;28;20049;-76
2023/08/31 03:52:39;;;;;;;0.10;0.10;;;13.50;99.90;;;;;;5011361;28;20373;-76
2023/08/31 03:55:05;;;;;;;0.20;0.20;;;13.70;99.90;;;;;;5011931;28;20363;-76
2023/08/31 03:57:33;;;;;;;0.10;0.10;;;13.60;99.90;;;;;;5010325;28;20022;-77
2023/08/31 04:00:08;;;;;;;0.40;0.40;;;13.50;99.90;;;;;;5010525;28;20026;-77
2023/08/31 04:02:44;;;;;;;0.85;0.85;;;13.50;99.90;;;;;;5011344;28;20406;-76
2023/08/31 04:05:11;;;;;;;0.50;0.50;;;13.40;99.90;;;;;;5003358;28;20030;-77
2023/08/31 04:07:36;;;;;;;0.20;0.20;;;13.60;99.90;;;;;;5024132;28;20026;-76
2023/08/31 04:10:03;;;;;;;3.78;0.90;;;13.60;99.90;;;;;;5011764;28;20402;-76
2023/08/31 04:12:30;;;;;;;0.85;0.40;;;13.70;99.90;;;;;;5011824;28;20077;-76
2023/08/31 04:14:58;;;;;;;0.47;0.47;;;13.80;99.90;;;;;;5010373;28;20017;-76
2023/08/31 04:17:24;;;;;;;0.10;0.10;;;13.80;99.90;;;;;;5009632;28;20034;-76
2023/08/31 04:19:50;;;;;;;2.08;1.27;;;13.60;99.90;;;;;;5011672;28;20028;-76
2023/08/31 04:22:17;;;;;;;0.00;0.00;;;13.60;99.90;;;;;;5010166;28;20030;-77
2023/08/31 04:24:42;;;;;;;0.10;0.10;;;13.80;99.90;;;;;;5010060;28;20465;-76
2023/08/31 04:27:08;;;;;;;0.10;0.10;;;13.70;99.90;;;;;;5010352;28;20113;-77
2023/08/31 04:29:34;;;;;;;1.75;1.38;;;13.80;99.90;;;;;;5009399;28;20057;-77
2023/08/31 04:32:00;;;;;;;0.45;0.43;;;13.60;99.90;;;;;;5010953;28;20052;-76
2023/08/31 04:34:26;;;;;;;0.45;0.45;;;13.70;99.90;;;;;;5010732;28;20557;-77
2023/08/31 04:36:52;;;;;;;2.65;1.20;;;13.70;99.90;;;;;;5009330;28;20030;-77
2023/08/31 04:39:18;;;;;;;1.27;1.13;;;13.70;99.90;;;;;;5009643;28;20552;-76
2023/08/31 04:41:44;;;;;;;0.73;0.63;;;13.70;99.90;;;;;;5009324;28;20066;-77
2023/08/31 04:44:10;;;;;;;0.43;0.43;;;13.50;99.90;;;;;;5011084;28;20569;-76
2023/08/31 04:46:38;;;;;;;0.43;0.43;;;13.60;99.90;;;;;;5010412;28;20474;-77
2023/08/31 04:49:03;;;;;;;6.50;1.65;;;13.60;99.90;;;;;;5009682;28;20144;-78
2023/08/31 04:51:35;;;;;;;0.20;0.20;;;13.80;99.90;;;;;;5009199;28;20113;-76
2023/08/31 04:54:02;;;;;;;0.60;0.45;;;14.00;99.90;;;;;;5010681;28;20048;-77
2023/08/31 04:56:33;;;;;;;0.10;0.10;;;14.00;99.90;;;;;;5004547;28;20026;-76
2023/08/31 04:58:59;;;;;;;0.45;0.45;;;14.20;99.90;;;;;;5010536;28;20053;-76
2023/08/31 05:01:25;;;;;;;4.95;1.45;;;14.00;99.90;;;;;;5010642;28;20405;-77
2023/08/31 05:03:51;;;;;;;14.50;1.08;;;13.90;99.90;;;;;;5010378;28;20117;-77
2023/08/31 05:06:16;;;;;;;1.23;0.98;;;13.80;99.90;;;;;;5010026;28;20488;-76
2023/08/31 05:08:42;;;;;;;0.20;0.20;;;13.80;99.90;;;;;;5010047;28;20018;-76
2023/08/31 05:11:08;;;;;;;0.20;0.20;;;14.00;99.90;;;;;;5010566;28;20534;-77
2023/08/31 05:13:34;;;;;;;1.55;1.45;;;13.80;99.90;;;;;;5009198;28;20039;-77
2023/08/31 05:16:00;;;;;;;0.20;0.20;;;13.90;99.90;;;;;;5010813;28;20074;-77
2023/08/31 05:18:26;;;;;;;0.30;0.30;;;13.90;99.90;;;;;;5010314;28;20121;-76
2023/08/31 05:20:52;;;;;;;2.55;2.30;;;14.20;99.90;;;;;;5010402;28;20022;-78
2023/08/31 05:23:17;;;;;;;1.92;0.35;;;14.20;99.90;;;;;;5010308;28;20022;-76
2023/08/31 05:25:44;;;;;;;3.45;2.15;;;14.20;99.90;;;;;;5012102;28;20374;-77
2023/08/31 05:28:10;;;;;;;0.30;0.30;;;14.10;99.90;;;;;;5015423;28;20108;-77
2023/08/31 05:30:36;;;;;;;0.10;0.10;;;14.10;99.90;;;;;;5010867;28;20427;-78
2023/08/31 05:33:03;;;;;;;7.70;2.22;;;14.10;99.90;;;;;;5009643;28;20249;-77
2023/08/31 05:35:30;;;;;;;3.10;1.35;;;14.00;99.90;;;;;;5010084;28;20064;-76
2023/08/31 05:37:56;;;;;;;0.30;0.30;;;13.90;99.90;;;;;;5009250;28;20033;-76
2023/08/31 05:40:22;;;;;;;1.23;0.70;;;14.20;99.90;;;;;;5008395;28;20018;-77
2023/08/31 05:42:47;;;;;;;0.73;0.73;;;14.20;99.90;;;;;;5008236;28;20034;-77
2023/08/31 05:45:15;;;;;;;0.38;0.38;;;14.20;99.90;;;;;;5008137;28;20019;-77
2023/08/31 05:47:41;;;;;;;1.95;1.35;;;14.30;99.90;;;;;;5008437;28;20478;-77
2023/08/31 05:50:07;;;;;;;6.80;1.75;;;14.50;99.90;;;;;;5007812;28;20033;-77
2023/08/31 05:52:33;;;;;;;2.40;0.93;;;14.50;99.90;;;;;;5020411;28;20040;-77
2023/08/31 05:54:59;;;;;;;0.10;0.10;;;14.70;99.90;;;;;;5020388;28;20101;-77
2023/08/31 05:57:27;;;;;;;2.30;0.80;;;14.70;99.90;;;;;;5025715;28;20033;-77
2023/08/31 05:59:53;;;;;;;0.35;0.35;;;14.80;99.90;;;;;;5055988;28;20079;-76
2023/08/31 06:02:19;;;;;;;0.10;0.10;;;14.50;99.90;;;;;;5080565;28;20496;-77
2023/08/31 06:04:46;;;;;;;0.00;0.00;;;14.70;99.90;;;;;;5048719;28;20095;-76
2023/08/31 06:07:12;;;;;;;0.03;0.03;;;14.60;99.90;;;;;;5022994;28;20122;-77
2023/08/31 06:09:38;;;;;;;2.83;1.48;;;14.70;99.90;;;;;;5011251;28;20041;-77
2023/08/31 06:12:05;;;;;;;9.10;1.88;;;14.70;99.90;;;;;;5047130;28;20026;-77
2023/08/31 06:14:31;;;;;;;0.52;0.52;;;14.60;99.90;;;;;;5013921;28;20022;-77
2023/08/31 06:16:56;;;;;;;1.98;1.13;;;14.70;99.90;;;;;;5048883;28;20030;-76
2023/08/31 06:19:22;;;;;;;4.72;2.05;;;14.70;99.90;;;;;;5048557;28;20384;-76
2023/08/31 06:21:48;;;;;;;3.55;2.05;;;14.60;99.90;;;;;;5036546;28;20033;-76
2023/08/31 06:24:14;;;;;;;0.00;0.00;;;14.40;99.90;;;;;;5016952;28;20121;-77
2023/08/31 06:26:41;;;;;;;0.82;0.75;;;14.40;99.90;;;;;;5070671;28;20029;-77
2023/08/31 06:29:09;;;;;;;1.98;1.55;;;14.30;99.90;;;;;;5044333;28;20095;-76
2023/08/31 06:31:35;;;;;;;0.43;0.13;;;14.30;99.90;;;;;;5018333;28;20389;-76
2023/08/31 06:34:01;;;;;;;0.10;0.10;;;14.40;99.90;;;;;;5028302;28;20037;-76
2023/08/31 06:36:26;;;;;;;0.17;0.17;;;14.50;99.90;;;;;;5012270;28;20079;-76
2023/08/31 06:38:52;;;;;;;1.15;0.60;;;14.50;99.90;;;;;;5051471;28;20067;-76
2023/08/31 06:41:18;;;;;;;1.38;1.10;;;14.50;99.90;;;;;;5041672;28;20531;-77
2023/08/31 06:43:45;;;;;;;30.70;2.50;;;14.70;99.90;;;;;;5033942;28;20022;-76
2023/08/31 06:46:11;;;;;;;3.55;0.95;;;14.60;99.90;;;;;;5019753;28;20032;-76
2023/08/31 06:48:37;;;;;;;2.67;1.33;;;14.70;99.90;;;;;;5059007;28;20026;-76
2023/08/31 06:51:03;;;;;;;1.15;0.60;;;14.60;99.90;;;;;;5057399;28;20466;-75
2023/08/31 06:53:31;;;;;;;14.80;2.72;;;14.70;99.90;;;;;;5028862;27;20125;-77
2023/08/31 06:55:57;;;;;;;7.57;2.13;;;14.90;99.90;;;;;;5032804;28;20018;-76
2023/08/31 06:58:23;;;;;;;0.73;0.73;;;14.90;99.90;;;;;;5020235;28;20387;-77
2023/08/31 07:00:48;;;;;;;2.70;1.55;;;15.00;99.90;;;;;;5055176;28;20032;-76
2023/08/31 07:03:14;;;;;;;0.10;0.10;;;15.20;99.90;;;;;;5057274;28;20448;-77
2023/08/31 07:05:43;;;;;;;1.55;1.27;;;15.40;99.90;;;;;;5016022;28;20030;-75
2023/08/31 07:08:10;;;;;;;7.97;2.35;;;15.50;99.90;;;;;;5028915;28;20482;-77
2023/08/31 07:10:38;;;;;;;4.03;2.13;;;15.30;99.90;;;;;;5015815;28;20057;-77
2023/08/31 07:13:04;;;;;;;0.22;0.22;;;15.10;99.90;;;;;;5050482;28;20044;-77
2023/08/31 07:15:30;;;;;;;0.60;0.60;;;15.10;99.90;;;;;;5042301;28;20034;-78
2023/08/31 07:17:56;;;;;;;0.30;0.30;;;15.20;99.90;;;;;;5017108;28;20030;-76
2023/08/31 07:20:22;;;;;;;1.80;1.48;;;15.40;99.90;;;;;;5012041;28;20058;-76
2023/08/31 07:22:48;;;;;;;1.08;0.57;;;15.50;99.90;;;;;;5011695;28;20068;-76
2023/08/31 07:25:14;;;;;;;3.50;2.50;;;15.40;99.90;;;;;;5011741;28;20022;-77
2023/08/31 07:27:40;;;;;;;0.40;0.40;;;15.40;99.90;;;;;;5012536;28;20018;-76
2023/08/31 07:30:06;;;;;;;0.32;0.32;;;15.60;99.90;;;;;;5011863;28;20129;-76
2023/08/31 07:32:32;;;;;;;0.93;0.70;;;15.50;99.90;;;;;;5011958;28;20049;-77
2023/08/31 07:34:58;;;;;;;5.45;1.98;;;15.80;99.90;;;;;;5010593;28;20034;-76
2023/08/31 07:37:24;;;;;;;0.10;0.10;;;15.60;99.90;;;;;;5013301;28;20482;-76
2023/08/31 07:39:50;;;;;;;0.75;0.73;;;15.80;99.90;;;;;;5011823;28;20026;-77
2023/08/31 07:42:16;;;;;;;0.52;0.52;;;15.70;99.90;;;;;;5011844;28;20030;-77
2023/08/31 07:44:44;;;;;;;1.48;1.38;;;15.90;99.90;;;;;;5011525;28;20033;-77
2023/08/31 07:47:10;;;;;;;0.70;0.65;;;15.90;99.90;;;;;;5011658;28;20030;-77
2023/08/31 07:49:35;;;;;;;0.03;0.03;;;15.80;99.90;;;;;;5011814;28;20080;-76
2023/08/31 07:52:02;;;;;;;2.33;1.48;;;16.00;99.90;;;;;;5011773;28;20478;-77
2023/08/31 07:54:28;;;;;;;2.67;0.60;;;16.00;99.90;;;;;;5010944;28;20067;-76
2023/08/31 07:56:54;;;;;;;4.50;0.88;;;16.10;99.90;;;;;;5011180;28;20034;-77
2023/08/31 07:59:20;;;;;;;0.10;0.10;;;16.20;99.90;;;;;;5011460;28;20105;-77
2023/08/31 08:01:47;;;;;;;44.10;8.65;;;16.40;99.90;;;;;;5010837;28;20108;-77
2023/08/31 08:04:13;;;;;;;0.88;0.70;;;16.50;99.90;;;;;;4997758;28;20512;-77
2023/08/31 08:06:39;;;;;;;4.85;1.40;;;16.30;99.90;;;;;;5011540;28;20045;-77
2023/08/31 08:09:05;;;;;;;7.75;2.33;;;16.30;99.90;;;;;;5011920;28;20026;-77
2023/08/31 08:11:31;;;;;;;0.05;0.05;;;16.50;99.90;;;;;;5011452;28;20026;-78
2023/08/31 08:13:57;;;;;;;7.03;2.55;;;16.50;99.90;;;;;;5011465;28;20116;-77
2023/08/31 08:16:23;;;;;;;4.28;0.75;;;16.70;99.90;;;;;;5011671;28;20096;-77
2023/08/31 08:18:50;;;;;;;0.95;0.20;;;16.70;99.90;;;;;;5011675;28;20469;-77
2023/08/31 08:21:16;;;;;;;1.33;1.20;;;16.60;99.90;;;;;;5010410;28;20053;-78
2023/08/31 08:23:41;;;;;;;0.65;0.65;;;17.00;99.90;;;;;;5011593;28;20478;-77
2023/08/31 08:26:07;;;;;;;1.65;1.13;;;16.90;99.90;;;;;;5011610;28;20061;-78
2023/08/31 08:28:33;;;;;;;0.40;0.40;;;16.90;99.90;;;;;;5011160;28;20188;-78
2023/08/31 08:31:03;;;;;;;0.52;0.28;;;17.00;99.90;;;;;;5012121;28;20030;-78
2023/08/31 08:33:30;;;;;;;0.22;0.22;;;17.10;99.90;;;;;;5010851;28;20088;-78
2023/08/31 08:35:58;;;;;;;1.27;0.85;;;17.30;99.90;;;;;;5011647;28;20435;-78
2023/08/31 08:38:25;;;;;;;1.35;0.93;;;17.60;99.90;;;;;;5011328;28;20041;-76
2023/08/31 08:40:51;;;;;;;0.50;0.45;;;17.60;99.90;;;;;;5011363;28;20034;-76
2023/08/31 08:43:25;;;;;;;0.38;0.38;;;17.60;99.90;;;;;;5010840;28;20022;-77
2023/08/31 08:45:54;;;;;;;2.20;0.63;;;17.60;99.90;;;;;;5016060;28;20026;-77
2023/08/31 08:48:21;;;;;;;5.75;1.60;;;17.60;99.90;;;;;;5011360;28;20174;-77
2023/08/31 08:50:48;;;;;;;11.52;1.15;;;17.70;99.90;;;;;;5011097;28;20420;-77
2023/08/31 08:53:15;;;;;;;0.40;0.35;;;17.80;99.90;;;;;;5011064;28;20038;-77
2023/08/31 08:55:43;;;;;;;3.03;1.13;;;17.80;99.90;;;;;;5010921;28;20512;-77
2023/08/31 08:58:10;;;;;;;0.00;0.00;;;17.90;99.90;;;;;;5010865;28;20040;-77
2023/08/31 09:00:36;;;;;;;0.47;0.47;;;18.00;99.90;;;;;;5010842;28;20485;-77
2023/08/31 09:03:05;;;;;;;0.00;0.00;;;18.30;99.90;;;;;;5011093;28;20044;-77
2023/08/31 09:05:32;;;;;;;6.72;1.77;;;18.50;99.90;;;;;;5009652;28;20048;-77
2023/08/31 09:08:07;;;;;;;0.00;0.00;;;18.70;99.90;;;;;;5009826;28;20500;-77
2023/08/31 09:10:44;;;;;;;0.05;0.05;;;18.90;99.90;;;;;;5010931;28;20026;-77
2023/08/31 09:13:10;;;;;;;6.28;0.25;;;19.30;99.90;;;;;;4997716;28;20065;-79
2023/08/31 09:15:44;;;;;;;0.10;0.10;;;19.40;99.90;;;;;;5009421;28;20409;-78
2023/08/31 09:18:22;;;;;;;0.10;0.10;;;19.20;99.90;;;;;;5010554;28;20033;-78
2023/08/31 09:20:48;;;;;;;0.20;0.00;;;18.80;99.90;;;;;;5009523;28;20053;-78
2023/08/31 09:23:15;;;;;;;0.73;0.10;;;18.70;99.90;;;;;;5009376;28;20449;-78
2023/08/31 09:25:43;;;;;;;3.97;3.05;;;18.90;99.90;;;;;;5010513;28;20038;-78
2023/08/31 09:28:10;;;;;;;2.08;0.57;;;19.10;99.90;;;;;;5009285;28;20022;-78
2023/08/31 09:30:40;;;;;;;5.18;1.70;;;19.00;99.90;;;;;;5010934;28;20045;-78
2023/08/31 09:33:08;;;;;;;1.65;1.55;;;18.80;99.90;;;;;;5010334;28;20050;-78
2023/08/31 09:35:40;;;;;;;6.38;0.70;;;18.70;99.90;;;;;;5010134;28;20022;-78
2023/08/31 09:38:09;;;;;;;0.10;0.10;;;19.10;99.90;;;;;;5010784;28;20486;-78
2023/08/31 09:40:38;;;;;;;12.30;0.88;;;19.50;99.90;;;;;;5010080;28;20113;-78
2023/08/31 09:43:04;;;;;;;0.10;0.10;;;19.30;99.90;;;;;;5010347;28;20026;-78
2023/08/31 09:45:32;;;;;;;6.50;1.08;;;19.30;99.90;;;;;;5010035;28;20022;-78
2023/08/31 09:48:03;;;;;;;2.88;1.83;;;19.40;99.90;;;;;;5010349;28;20030;-78
2023/08/31 09:50:30;;;;;;;0.30;0.30;;;19.10;99.90;;;;;;5008904;28;20045;-78
2023/08/31 09:53:01;;;;;;;1.23;0.30;;;18.90;99.90;;;;;;5010146;28;20030;-78
2023/08/31 09:55:29;;;;;;;0.60;0.35;;;19.20;99.90;;;;;;5009842;28;20034;-77
2023/08/31 09:58:00;;;;;;;0.10;0.10;;;19.00;99.90;;;;;;5010110;28;20075;-78
2023/08/31 10:00:28;;;;;;;1.48;0.55;;;19.30;99.90;;;;;;5009878;28;20486;-78
2023/08/31 10:03:01;;;;;;;0.52;0.52;;;19.30;99.90;;;;;;5003595;28;20034;-78
2023/08/31 10:05:28;;;;;;;7.55;1.17;;;19.40;99.90;;;;;;5003208;28;20030;-77
2023/08/31 10:07:55;;;;;;;0.47;0.47;;;19.40;99.90;;;;;;5010729;28;20022;-78
2023/08/31 10:10:24;;;;;;;0.63;0.63;;;19.30;99.90;;;;;;5002001;28;20022;-78
2023/08/31 10:12:51;;;;;;;0.03;0.03;;;19.40;99.90;;;;;;5009858;28;20100;-78
2023/08/31 10:15:19;;;;;;;0.15;0.15;;;19.80;99.90;;;;;;5009854;28;20130;-78
2023/08/31 10:17:45;;;;;;;0.73;0.22;;;19.80;99.90;;;;;;5010091;28;20097;-78
2023/08/31 10:20:14;;;;;;;0.17;0.17;;;20.20;99.90;;;;;;5011507;28;20036;-78
2023/08/31 10:22:40;;;;;;;1.23;1.13;;;20.30;99.90;;;;;;5013393;28;20104;-78
2023/08/31 10:25:07;;;;;;;0.50;0.50;;;20.20;99.90;;;;;;5011741;28;20106;-78
2023/08/31 10:27:41;;;;;;;0.10;0.10;;;20.20;99.90;;;;;;5013316;28;20033;-77
2023/08/31 10:30:22;;;;;;;0.30;0.22;;;19.80;99.90;;;;;;5011892;28;20060;-78
2023/08/31 10:33:09;;;;;;;0.40;0.40;;;19.50;99.90;;;;;;5013607;28;20390;-78
2023/08/31 10:35:42;;;;;;;0.30;0.30;;;19.70;99.90;;;;;;5013101;28;20473;-78
2023/08/31 10:38:15;;;;;;;2.92;0.68;;;20.00;99.90;;;;;;5013035;28;20090;-78
2023/08/31 10:40:41;;;;;;;0.00;0.00;;;20.20;99.90;;;;;;5012826;28;20030;-78
2023/08/31 10:43:16;;;;;;;7.38;0.90;;;19.80;99.90;;;;;;5013022;28;20045;-78
2023/08/31 10:45:45;;;;;;;5.38;0.98;;;20.00;99.90;;;;;;5012904;28;20050;-78
2023/08/31 10:48:11;;;;;;;0.05;0.05;;;20.20;99.90;;;;;;5013226;28;20038;-78
2023/08/31 10:50:47;;;;;;;1.67;1.05;;;20.70;99.90;;;;;;5012858;28;20028;-78
2023/08/31 10:53:13;;;;;;;0.95;0.68;;;20.50;99.90;;;;;;5012623;28;20116;-78
2023/08/31 10:55:52;;;;;;;0.57;0.57;;;20.50;99.90;;;;;;5012907;28;20167;-77
2023/08/31 10:58:18;;;;;;;1.10;0.90;;;20.20;99.90;;;;;;5012982;28;20026;-78
2023/08/31 11:00:55;;;;;;;1.48;0.45;;;19.90;99.90;;;;;;5012657;28;20053;-78
2023/08/31 11:03:21;;;;;;;0.93;0.57;;;19.80;99.90;;;;;;5019778;28;20038;-77
2023/08/31 11:05:53;;;;;;;0.75;0.75;;;19.90;99.90;;;;;;5012451;28;20024;-78
2023/08/31 11:08:23;;;;;;;3.13;0.40;;;20.20;99.90;;;;;;5025558;28;20049;-77
2023/08/31 11:10:49;;;;;;;0.13;0.13;;;20.10;99.90;;;;;;5016995;28;20104;-78
2023/08/31 11:13:23;;;;;;;0.20;0.20;;;20.50;99.90;;;;;;5002497;28;20058;-77
2023/08/31 11:15:49;;;;;;;0.28;0.25;;;20.80;99.90;;;;;;5063236;28;20073;-77
2023/08/31 11:18:17;;;;;;;1.02;0.30;;;21.10;99.90;;;;;;5050991;28;20026;-77
2023/08/31 11:20:43;;;;;;;0.00;0.00;;;20.70;99.90;;;;;;5068480;28;20022;-77
2023/08/31 11:23:09;;;;;;;0.00;0.00;;;20.60;99.90;;;;;;5054659;28;20228;-77
2023/08/31 11:25:35;;;;;;;0.20;0.20;;;20.60;99.90;;;;;;5019841;28;20057;-77
2023/08/31 11:28:07;;;;;;;1.90;0.98;;;20.70;99.90;;;;;;5078294;28;20028;-76
2023/08/31 11:30:34;;;;;;;0.15;0.15;;;20.30;99.90;;;;;;5067657;28;20083;-77
2023/08/31 11:33:07;;;;;;;0.52;0.35;;;20.00;99.90;;;;;;5051092;28;20073;-77
2023/08/31 11:35:37;;;;;;;0.45;0.38;;;19.80;99.90;;;;;;5028335;28;20022;-76
2023/08/31 11:38:03;;;;;;;0.20;0.20;;;20.30;99.90;;;;;;5015218;28;20057;-78
2023/08/31 11:40:30;;;;;;;0.55;0.35;;;20.90;99.90;;;;;;5076477;28;20037;-76
2023/08/31 11:42:57;;;;;;;0.25;0.20;;;20.20;99.90;;;;;;5080848;28;20094;-76
2023/08/31 11:45:25;;;;;;;0.70;0.70;;;20.20;99.90;;;;;;5054538;28;20065;-76
2023/08/31 11:47:52;;;;;;;0.10;0.10;;;20.20;99.90;;;;;;5024194;28;20022;-78
2023/08/31 11:50:19;;;;;;;0.38;0.20;;;20.30;99.90;;;;;;5011203;28;20041;-76
2023/08/31 11:52:45;;;;;;;0.82;0.45;;;20.40;99.90;;;;;;5082976;28;20450;-76
2023/08/31 11:55:17;;;;;;;1.00;0.90;;;20.70;99.90;;;;;;5076583;28;20077;-76
2023/08/31 11:57:54;;;;;;;0.70;0.20;;;21.10;99.90;;;;;;5023508;28;20058;-77
2023/08/31 12:00:21;;;;;;;1.67;0.10;;;21.00;99.90;;;;;;5019989;28;20041;-77
2023/08/31 12:02:58;;;;;;;0.00;0.00;;;21.70;99.90;;;;;;5092316;28;20030;-77
2023/08/31 12:05:24;;;;;;;1.52;1.13;;;22.00;99.90;;;;;;5085029;28;20050;-77
2023/08/31 12:07:51;;;;;;;0.25;0.10;;;21.80;99.90;;;;;;5039091;28;20061;-77
2023/08/31 12:10:16;;;;;;;2.08;1.10;;;22.20;99.90;;;;;;5028682;28;20017;-78
2023/08/31 12:12:42;;;;;;;0.70;0.43;;;22.10;99.90;;;;;;5007728;28;20113;-77
2023/08/31 12:15:10;;;;;;;0.10;0.10;;;22.10;99.90;;;;;;5065708;28;20034;-76
2023/08/31 12:17:43;;;;;;;3.03;0.90;;;22.50;99.90;;;;;;5049843;28;20036;-77
2023/08/31 12:20:09;;;;;;;2.28;0.13;;;22.60;99.90;;;;;;5057284;28;20022;-76
2023/08/31 12:22:35;;;;;;;1.95;0.80;;;23.00;99.90;;;;;;5016274;28;20026;-77
2023/08/31 12:25:01;;;;;;;0.38;0.38;;;23.10;99.90;;;;;;5034712;28;20381;-77
2023/08/31 12:27:27;;;;;;;2.28;1.45;;;23.10;99.90;;;;;;5015514;28;20490;-77
2023/08/31 12:29:53;;;;;;;0.73;0.55;;;22.50;99.90;;;;;;5036553;28;20029;-77
2023/08/31 12:32:18;;;;;;;4.20;1.17;;;23.20;99.90;;;;;;5028095;28;20386;-76
2023/08/31 12:34:44;;;;;;;1.80;0.80;;;22.20;99.90;;;;;;4999559;28;20046;-77
2023/08/31 12:37:10;;;;;;;0.57;0.57;;;21.30;99.90;;;;;;5009575;28;20033;-76
2023/08/31 12:39:37;;;;;;;0.20;0.15;;;21.30;99.90;;;;;;5011360;28;20048;-77
2023/08/31 12:42:04;;;;;;;4.57;0.95;;;21.50;99.90;;;;;;5009409;28;20033;-77
2023/08/31 12:44:31;;;;;;;5.05;0.52;;;21.10;99.90;;;;;;5025780;28;20037;-77
2023/08/31 12:46:56;;;;;;;0.93;0.68;;;21.10;99.90;;;;;;5011127;28;20079;-77
2023/08/31 12:49:22;;;;;;;0.35;0.20;;;21.80;99.90;;;;;;5011047;28;20478;-77